createdAt,value
2023-03-29T00:02:35.824Z,28.88
2023-03-29T00:05:35.561Z,26.15
2023-03-29T00:08:35.695Z,29.73
2023-03-29T00:11:33.996Z,28.05
2023-03-29T00:14:32.265Z,25.95
2023-03-29T00:17:30.503Z,23.98
2023-03-29T00:20:29.404Z,25.52
2023-03-29T00:23:27.316Z,29.23
2023-03-29T00:26:25.453Z,26.83
2023-03-29T00:29:23.364Z,32.47
2023-03-29T00:32:21.331Z,24.35
2023-03-29T00:35:20.071Z,23.55
2023-03-29T00:38:18.523Z,22.83
2023-03-29T00:41:16.469Z,27.15
2023-03-29T00:44:44.988Z,25.25
2023-03-29T00:47:50.315Z,24.50
2023-03-29T00:51:02.340Z,23.52
2023-03-29T00:54:02.405Z,21.42
2023-03-29T00:57:04.630Z,26.02
2023-03-29T01:00:05.782Z,23.30
2023-03-29T01:03:09.628Z,21.38
2023-03-29T01:06:09.660Z,23.55
2023-03-29T01:09:13.321Z,15.95
2023-03-29T01:12:19.788Z,21.75
2023-03-29T01:15:23.098Z,21.38
2023-03-29T01:21:28.447Z,23.08
2023-03-29T01:24:42.427Z,19.30
2023-03-29T01:27:54.590Z,21.58
2023-03-29T01:30:57.132Z,18.42
2023-03-29T01:34:03.198Z,23.38
2023-03-29T01:37:08.211Z,21.13
2023-03-29T01:40:06.998Z,17.02
2023-03-29T01:43:18.089Z,14.32
2023-03-29T01:46:25.634Z,12.68
2023-03-29T01:49:32.989Z,13.77
2023-03-29T01:52:37.511Z,14.95
2023-03-29T01:55:39.419Z,14.77
2023-03-29T01:58:44.038Z,21.48
2023-03-29T02:01:49.726Z,16.83
2023-03-29T02:04:52.881Z,18.02
2023-03-29T02:07:54.092Z,18.30
2023-03-29T02:10:52.570Z,22.20
2023-03-29T02:13:50.352Z,21.73
2023-03-29T02:16:50.205Z,21.38
2023-03-29T02:19:55.509Z,22.73
2023-03-29T02:23:05.199Z,23.23
2023-03-29T02:26:04.471Z,27.88
2023-03-29T02:29:02.606Z,23.42
2023-03-29T02:32:10.549Z,25.30
2023-03-29T02:35:13.945Z,22.55
2023-03-29T02:38:12.506Z,32.72
2023-03-29T02:41:11.422Z,31.10
2023-03-29T02:44:14.228Z,28.42
2023-03-29T02:47:19.285Z,27.05
2023-03-29T02:50:17.201Z,24.73
2023-03-29T02:53:19.859Z,25.27
2023-03-29T02:56:17.634Z,24.98
2023-03-29T02:59:17.294Z,20.17
2023-03-29T03:02:15.517Z,28.73
2023-03-29T03:05:13.791Z,22.25
2023-03-29T03:08:11.959Z,25.73
2023-03-29T03:11:09.853Z,31.52
2023-03-29T03:14:08.102Z,23.10
2023-03-29T03:17:05.980Z,21.90
2023-03-29T03:20:05.702Z,23.95
2023-03-29T03:23:04.603Z,27.40
2023-03-29T03:26:02.530Z,21.70
2023-03-29T03:29:01.473Z,22.85
2023-03-29T03:31:59.344Z,21.85
2023-03-29T03:34:57.271Z,25.70
2023-03-29T03:37:55.091Z,22.67
2023-03-29T03:40:55.685Z,23.17
2023-03-29T03:43:53.553Z,30.73
2023-03-29T03:46:51.610Z,24.27
2023-03-29T03:49:49.406Z,27.88
2023-03-29T03:52:47.354Z,26.33
2023-03-29T03:55:49.819Z,27.83
2023-03-29T03:58:48.251Z,39.08
2023-03-29T04:01:46.125Z,38.20
2023-03-29T04:04:44.110Z,42.67
2023-03-29T04:07:41.922Z,36.13
2023-03-29T04:10:40.431Z,30.70
2023-03-29T04:13:38.257Z,40.03
2023-03-29T04:16:36.335Z,41.80
2023-03-29T04:19:34.138Z,38.13
2023-03-29T04:22:32.230Z,43.45
2023-03-29T04:25:30.421Z,39.65
2023-03-29T04:28:28.353Z,48.60
2023-03-29T04:31:26.524Z,48.47
2023-03-29T04:34:24.469Z,53.60
2023-03-29T04:37:22.911Z,51.72
2023-03-29T04:40:21.548Z,47.72
2023-03-29T04:43:19.334Z,53.38
2023-03-29T04:46:17.631Z,50.85
2023-03-29T04:49:15.544Z,48.05
2023-03-29T04:52:14.291Z,48.80
2023-03-29T04:55:12.602Z,50.95
2023-03-29T04:58:10.771Z,50.53
2023-03-29T05:01:08.535Z,54.97
2023-03-29T05:04:06.557Z,47.90
2023-03-29T05:07:04.999Z,58.88
2023-03-29T05:10:02.973Z,53.67
2023-03-29T05:13:00.788Z,59.85
2023-03-29T05:15:58.748Z,56.65
2023-03-29T05:18:57.649Z,56.40
2023-03-29T05:21:55.525Z,57.53
2023-03-29T05:24:53.434Z,62.85
2023-03-29T05:27:51.289Z,53.63
2023-03-29T05:30:59.417Z,54.58
2023-03-29T05:33:57.442Z,61.92
2023-03-29T05:36:57.352Z,65.30
2023-03-29T05:40:05.886Z,55.60
2023-03-29T05:43:04.494Z,54.05
2023-03-29T05:46:09.480Z,63.58
2023-03-29T05:49:07.286Z,62.42
2023-03-29T05:52:05.176Z,56.25
2023-03-29T05:55:04.766Z,52.00
2023-03-29T05:58:02.910Z,65.18
2023-03-29T06:01:01.056Z,72.03
2023-03-29T06:03:59.363Z,59.80
2023-03-29T06:06:57.941Z,60.72
2023-03-29T06:09:56.143Z,60.90
2023-03-29T06:12:53.965Z,68.97
2023-03-29T06:15:52.404Z,64.80
2023-03-29T06:18:50.331Z,63.85
2023-03-29T06:21:48.198Z,62.25
2023-03-29T06:24:45.976Z,65.55
2023-03-29T06:27:43.852Z,61.42
2023-03-29T06:30:42.675Z,58.28
2023-03-29T06:33:42.701Z,54.75
2023-03-29T06:36:40.586Z,51.70
2023-03-29T06:39:38.480Z,50.50
2023-03-29T06:42:36.381Z,54.70
2023-03-29T06:45:37.342Z,47.80
2023-03-29T06:48:35.115Z,60.97
2023-03-29T06:51:33.090Z,57.60
2023-03-29T06:54:31.718Z,56.25
2023-03-29T06:57:29.657Z,59.28
2023-03-29T07:00:28.580Z,63.22
2023-03-29T07:03:26.716Z,59.33
2023-03-29T07:06:24.638Z,67.25
2023-03-29T07:09:22.514Z,57.60
2023-03-29T07:12:22.751Z,56.13
2023-03-29T07:15:22.314Z,58.38
2023-03-29T07:18:20.354Z,51.85
2023-03-29T07:21:18.271Z,55.97
2023-03-29T07:24:16.176Z,54.25
2023-03-29T07:27:18.480Z,51.28
2023-03-29T07:30:19.112Z,47.92
2023-03-29T07:33:17.163Z,46.15
2023-03-29T07:36:16.115Z,56.38
2023-03-29T07:39:14.314Z,50.47
2023-03-29T07:42:12.094Z,48.20
2023-03-29T07:45:10.758Z,54.65
2023-03-29T07:48:09.008Z,42.72
2023-03-29T07:51:07.782Z,45.95
2023-03-29T07:54:06.942Z,45.80
2023-03-29T07:57:05.217Z,42.10
2023-03-29T08:00:19.237Z,47.25
2023-03-29T08:03:19.881Z,56.50
2023-03-29T08:06:18.974Z,52.00
2023-03-29T08:09:17.162Z,44.60
2023-03-29T08:12:16.778Z,53.88
2023-03-29T08:15:15.263Z,54.50
2023-03-29T08:18:13.242Z,51.85
2023-03-29T08:21:11.543Z,55.35
2023-03-29T08:24:09.825Z,54.55
2023-03-29T08:27:07.725Z,53.95
2023-03-29T08:30:08.727Z,51.33
2023-03-29T08:33:07.131Z,44.78
2023-03-29T08:36:05.401Z,47.20
2023-03-29T08:39:04.011Z,48.60
2023-03-29T08:42:21.214Z,51.60
2023-03-29T08:45:36.163Z,46.13
2023-03-29T08:48:42.813Z,45.83
2023-03-29T08:51:46.695Z,35.88
2023-03-29T08:54:49.275Z,35.00
2023-03-29T08:57:49.947Z,35.90
2023-03-29T09:00:52.596Z,41.22
2023-03-29T09:06:50.793Z,46.47
2023-03-29T09:09:49.503Z,62.00
2023-03-29T09:13:09.602Z,56.92
2023-03-29T09:16:38.207Z,57.80
2023-03-29T09:19:52.957Z,37.10
2023-03-29T09:23:06.433Z,32.28
2023-03-29T09:26:18.823Z,34.58
2023-03-29T09:29:39.058Z,34.88
2023-03-29T09:32:51.879Z,30.25
2023-03-29T09:35:58.968Z,21.08
2023-03-29T09:38:57.491Z,15.88
2023-03-29T09:42:05.023Z,23.50
2023-03-29T09:45:09.069Z,21.80
2023-03-29T09:48:19.946Z,19.83
2023-03-29T09:51:20.256Z,24.40
2023-03-29T09:54:18.362Z,25.48
2023-03-29T09:57:19.286Z,30.83
2023-03-29T10:00:18.380Z,27.00
2023-03-29T10:03:21.796Z,32.78
2023-03-29T10:06:24.700Z,34.88
2023-03-29T10:09:25.309Z,32.92
2023-03-29T10:12:23.840Z,20.75
2023-03-29T10:15:29.806Z,20.83
2023-03-29T10:18:31.205Z,17.85
2023-03-29T10:21:30.919Z,19.73
2023-03-29T10:24:29.126Z,21.02
2023-03-29T10:27:30.692Z,24.75
2023-03-29T10:30:29.219Z,30.23
2023-03-29T10:33:32.407Z,26.05
2023-03-29T10:36:30.566Z,22.60
2023-03-29T10:39:30.737Z,19.88
2023-03-29T10:42:29.790Z,17.25
2023-03-29T10:45:32.274Z,19.35
2023-03-29T10:48:31.821Z,17.42
2023-03-29T10:51:30.844Z,24.67
2023-03-29T10:54:34.291Z,17.17
2023-03-29T10:57:58.663Z,25.20
2023-03-29T11:00:58.213Z,17.27
2023-03-29T11:04:12.147Z,21.05
2023-03-29T11:07:52.612Z,18.83
2023-03-29T11:11:12.684Z,20.58
2023-03-29T11:14:33.978Z,19.65
2023-03-29T11:17:51.393Z,20.05
2023-03-29T11:21:10.676Z,27.77
2023-03-29T11:24:37.919Z,25.25
2023-03-29T11:27:45.505Z,21.95
2023-03-29T11:30:51.762Z,18.88
2023-03-29T11:34:10.789Z,19.70
2023-03-29T11:37:24.611Z,19.92
2023-03-29T11:40:50.057Z,27.13
2023-03-29T11:44:00.971Z,19.05
2023-03-29T11:47:10.452Z,25.08
2023-03-29T11:50:31.903Z,18.77
2023-03-29T11:53:43.280Z,17.55
2023-03-29T11:56:45.547Z,20.85
2023-03-29T12:00:00.803Z,16.05
2023-03-29T12:03:05.489Z,22.50
2023-03-29T12:06:15.692Z,28.85
2023-03-29T12:09:34.963Z,27.30
2023-03-29T12:13:04.369Z,25.45
2023-03-29T12:16:17.025Z,26.83
2023-03-29T12:19:22.756Z,22.58
2023-03-29T12:22:21.264Z,25.77
2023-03-29T12:25:32.312Z,27.50
2023-03-29T12:28:57.148Z,24.63
2023-03-29T12:32:25.085Z,25.23
2023-03-29T12:35:45.051Z,25.20
2023-03-29T12:38:44.822Z,24.23
2023-03-29T12:41:49.336Z,25.83
2023-03-29T12:44:57.619Z,23.98
2023-03-29T12:47:56.949Z,24.85
2023-03-29T12:51:01.833Z,21.85
2023-03-29T12:54:16.937Z,25.23
2023-03-29T12:57:45.629Z,24.90
2023-03-29T13:00:45.822Z,24.25
2023-03-29T13:03:52.573Z,25.58
2023-03-29T13:07:03.552Z,25.70
2023-03-29T13:10:04.816Z,24.40
2023-03-29T13:13:16.218Z,34.05
2023-03-29T13:16:16.905Z,35.30
2023-03-29T13:19:29.046Z,30.63
2023-03-29T13:22:57.700Z,38.35
2023-03-29T13:26:18.384Z,42.03
2023-03-29T13:29:40.579Z,43.60
2023-03-29T13:36:04.077Z,30.58
2023-03-29T13:39:05.933Z,31.77
2023-03-29T13:42:22.316Z,26.83
2023-03-29T13:45:29.328Z,31.90
2023-03-29T13:48:54.348Z,28.45
2023-03-29T13:52:16.795Z,23.50
2023-03-29T13:55:28.982Z,26.88
2023-03-29T13:58:43.458Z,27.02
2023-03-29T14:01:49.939Z,25.08
2023-03-29T14:04:51.456Z,23.40
2023-03-29T14:07:53.443Z,24.35
2023-03-29T14:10:51.413Z,27.30
2023-03-29T14:13:51.921Z,26.63
2023-03-29T14:16:49.813Z,26.83
2023-03-29T14:19:48.898Z,27.10
2023-03-29T14:22:47.014Z,30.55
2023-03-29T14:25:44.906Z,27.55
2023-03-29T14:28:51.966Z,30.30
2023-03-29T14:31:50.759Z,25.45
2023-03-29T14:34:50.711Z,24.25
2023-03-29T14:37:49.846Z,21.33
2023-03-29T14:40:47.624Z,31.27
2023-03-29T14:43:47.148Z,32.65
2023-03-29T14:46:46.183Z,23.80
2023-03-29T14:49:45.269Z,23.77
2023-03-29T14:52:45.673Z,24.67
2023-03-29T14:55:47.810Z,24.45
2023-03-29T14:58:47.823Z,28.63
2023-03-29T15:01:45.850Z,26.17
2023-03-29T15:04:43.670Z,25.08
2023-03-29T15:07:44.348Z,25.02
2023-03-29T15:10:44.913Z,31.05
2023-03-29T15:13:44.636Z,29.45
2023-03-29T15:16:45.630Z,35.00
2023-03-29T15:19:43.517Z,31.60
2023-03-29T15:22:53.198Z,37.55
2023-03-29T15:26:09.308Z,32.88
2023-03-29T15:29:23.795Z,32.28
2023-03-29T15:32:24.018Z,27.85
2023-03-29T15:35:24.557Z,27.27
2023-03-29T15:38:27.644Z,22.92
2023-03-29T15:41:28.449Z,24.05
2023-03-29T15:44:35.837Z,25.33
2023-03-29T15:47:33.676Z,25.38
2023-03-29T15:50:33.078Z,23.13
2023-03-29T15:53:31.156Z,29.58
2023-03-29T15:56:29.235Z,20.33
2023-03-29T15:59:27.036Z,22.42
2023-03-29T16:02:26.216Z,22.95
2023-03-29T16:05:24.030Z,20.52
2023-03-29T16:08:22.004Z,22.80
2023-03-29T16:11:19.776Z,20.65
2023-03-29T16:14:33.885Z,21.77
2023-03-29T16:17:31.801Z,20.58
2023-03-29T16:20:29.742Z,20.10
2023-03-29T16:23:27.481Z,21.75
2023-03-29T16:26:26.785Z,17.60
2023-03-29T16:29:25.818Z,17.05
2023-03-29T16:32:23.701Z,17.75
2023-03-29T16:35:31.763Z,19.48
2023-03-29T16:38:29.898Z,21.35
2023-03-29T16:41:28.238Z,18.65
2023-03-29T16:44:28.424Z,17.75
2023-03-29T16:47:26.466Z,16.08
2023-03-29T16:50:24.700Z,22.35
2023-03-29T16:53:22.829Z,23.08
2023-03-29T16:56:21.331Z,25.80
2023-03-29T16:59:19.110Z,26.90
2023-03-29T17:02:17.007Z,27.25
2023-03-29T17:05:14.758Z,21.27
2023-03-29T17:08:12.596Z,24.88
2023-03-29T17:11:11.954Z,20.10
2023-03-29T17:14:10.693Z,19.08
2023-03-29T17:17:08.600Z,21.92
2023-03-29T17:20:09.256Z,22.13
2023-03-29T17:23:07.207Z,28.02
2023-03-29T17:26:06.600Z,28.45
2023-03-29T17:29:04.874Z,21.40
2023-03-29T17:32:02.745Z,20.90
2023-03-29T17:35:00.867Z,20.50
2023-03-29T17:38:01.038Z,23.30
2023-03-29T17:40:58.756Z,18.27
2023-03-29T17:43:56.702Z,21.90
2023-03-29T17:46:54.534Z,16.55
2023-03-29T17:49:52.421Z,17.00
2023-03-29T17:52:50.198Z,17.23
2023-03-29T17:55:48.370Z,18.63
2023-03-29T17:58:46.250Z,19.17
2023-03-29T18:01:44.374Z,26.98
2023-03-29T18:04:42.199Z,20.50
2023-03-29T18:07:40.182Z,19.13
2023-03-29T18:10:38.483Z,15.73
2023-03-29T18:13:36.391Z,17.45
2023-03-29T18:16:34.646Z,18.45
2023-03-29T18:19:32.606Z,22.27
2023-03-29T18:22:33.247Z,18.38
2023-03-29T18:25:31.086Z,20.55
2023-03-29T18:28:29.228Z,14.13
2023-03-29T18:31:28.575Z,24.15
2023-03-29T18:34:26.721Z,20.80
2023-03-29T18:37:24.752Z,24.38
2023-03-29T18:40:25.151Z,18.13
2023-03-29T18:43:23.072Z,18.17
2023-03-29T18:46:20.993Z,19.00
2023-03-29T18:49:19.690Z,17.67
2023-03-29T18:52:17.510Z,19.58
2023-03-29T18:55:15.578Z,18.52
2023-03-29T18:58:15.582Z,18.10
2023-03-29T19:01:14.495Z,16.13
2023-03-29T19:04:13.868Z,19.33
2023-03-29T19:07:11.818Z,18.20
2023-03-29T19:10:10.189Z,20.02
2023-03-29T19:13:08.254Z,16.38
2023-03-29T19:16:06.536Z,18.92
2023-03-29T19:19:06.387Z,20.13
2023-03-29T19:22:04.555Z,16.95
2023-03-29T19:25:02.707Z,17.90
2023-03-29T19:40:29.321Z,17.77
2023-03-29T19:43:27.605Z,16.73
2023-03-29T19:46:26.028Z,16.70
2023-03-29T19:49:23.832Z,19.60
2023-03-29T19:52:24.535Z,17.17
2023-03-29T19:55:22.705Z,17.17
2023-03-29T19:58:20.796Z,17.40
2023-03-29T20:01:21.404Z,13.40
2023-03-29T20:04:21.416Z,15.93
2023-03-29T20:07:19.178Z,19.13
2023-03-29T20:10:17.419Z,15.82
2023-03-29T20:13:17.341Z,19.05
2023-03-29T20:16:24.933Z,17.92
2023-03-29T20:19:25.755Z,20.10
2023-03-29T20:22:26.605Z,20.00
2023-03-29T20:25:25.216Z,17.80
2023-03-29T20:28:24.609Z,19.63
2023-03-29T20:31:22.661Z,16.35
2023-03-29T20:34:20.657Z,17.88
2023-03-29T20:37:18.423Z,14.00
2023-03-29T20:40:16.598Z,18.75
2023-03-29T20:43:18.824Z,19.30
2023-03-29T20:46:24.422Z,16.47
2023-03-29T20:49:26.757Z,14.63
2023-03-29T20:52:25.309Z,14.57
2023-03-29T20:55:24.146Z,16.90
2023-03-29T20:58:22.661Z,17.77
2023-03-29T21:01:22.314Z,13.88
2023-03-29T21:04:20.627Z,14.88
2023-03-29T21:07:20.416Z,18.25
2023-03-29T21:10:18.449Z,14.68
2023-03-29T21:13:16.330Z,15.77
2023-03-29T21:16:14.478Z,16.15
2023-03-29T21:19:12.510Z,14.68
2023-03-29T21:22:14.276Z,17.73
2023-03-29T21:25:16.035Z,15.45
2023-03-29T21:28:14.000Z,14.82
2023-03-29T21:31:12.062Z,13.50
2023-03-29T21:34:10.104Z,16.13
2023-03-29T21:37:07.961Z,23.55
2023-03-29T21:40:07.100Z,16.00
2023-03-29T21:43:05.248Z,16.15
2023-03-29T21:46:03.138Z,15.85
2023-03-29T21:49:01.050Z,16.45
2023-03-29T21:51:58.989Z,15.70
2023-03-29T21:54:56.730Z,13.20
2023-03-29T21:57:54.836Z,13.77
2023-03-29T22:00:52.740Z,16.75
2023-03-29T22:03:51.053Z,15.48
2023-03-29T22:06:49.893Z,14.52
2023-03-29T22:09:47.784Z,12.88
2023-03-29T22:12:45.550Z,15.85
2023-03-29T22:15:43.397Z,10.48
2023-03-29T22:18:44.613Z,16.55
2023-03-29T22:21:43.121Z,13.73
2023-03-29T22:24:41.805Z,14.50
2023-03-29T22:27:40.114Z,13.02
2023-03-29T22:30:37.880Z,12.85
2023-03-29T22:33:37.328Z,16.70
2023-03-29T22:36:36.572Z,14.48
2023-03-29T22:39:37.326Z,13.50
2023-03-29T22:42:35.103Z,14.82
2023-03-29T22:45:32.957Z,13.80
2023-03-29T22:48:31.498Z,13.27
2023-03-29T22:51:29.472Z,16.70
2023-03-29T22:54:27.724Z,13.75
2023-03-29T22:57:25.740Z,12.70
2023-03-29T23:00:23.603Z,12.85
2023-03-29T23:03:23.768Z,13.65
2023-03-29T23:06:21.578Z,13.00
2023-03-29T23:09:19.421Z,14.35
2023-03-29T23:12:28.871Z,13.73
2023-03-29T23:15:29.022Z,14.02
2023-03-29T23:18:29.045Z,13.18
2023-03-29T23:21:28.567Z,11.77
2023-03-29T23:24:26.310Z,15.48
2023-03-29T23:27:24.237Z,13.60
2023-03-29T23:30:22.701Z,13.88
2023-03-29T23:33:22.404Z,13.20
2023-03-29T23:36:22.073Z,12.80
2023-03-29T23:39:19.969Z,14.02
2023-03-29T23:42:19.504Z,13.30
2023-03-29T23:45:19.543Z,14.57
2023-03-29T23:48:17.313Z,16.35
2023-03-29T23:51:15.743Z,19.73
2023-03-29T23:54:13.603Z,13.23
2023-03-29T23:57:11.493Z,14.60
